sensor_id;sensor_type;location;lat;lon;timestamp;temperature;humidity
25280;DHT22;13225;47.804;12.116;2022-08-01T00:00:11;20.60;99.90
25280;DHT22;13225;47.804;12.116;2022-08-01T00:02:37;20.50;99.90
25280;DHT22;13225;47.804;12.116;2022-08-01T00:05:04;20.50;99.90
25280;DHT22;13225;47.804;12.116;2022-08-01T00:07:32;20.50;99.90
25280;DHT22;13225;47.804;12.116;2022-08-01T00:09:58;20.50;99.90
25280;DHT22;13225;47.804;12.116;2022-08-01T00:12:24;20.60;99.90
25280;DHT22;13225;47.804;12.116;2022-08-01T00:14:49;20.60;99.90
25280;DHT22;13225;47.804;12.116;2022-08-01T00:17:15;20.60;99.90
25280;DHT22;13225;47.804;12.116;2022-08-01T00:19:41;20.60;99.90
25280;DHT22;13225;47.804;12.116;2022-08-01T00:22:07;20.70;99.90
25280;DHT22;13225;47.804;12.116;2022-08-01T00:24:33;20.60;99.90
25280;DHT22;13225;47.804;12.116;2022-08-01T00:26:59;20.60;99.90
25280;DHT22;13225;47.804;12.116;2022-08-01T00:29:24;20.60;99.90
25280;DHT22;13225;47.804;12.116;2022-08-01T00:31:50;20.50;99.90
25280;DHT22;13225;47.804;12.116;2022-08-01T00:34:16;20.50;99.90
25280;DHT22;13225;47.804;12.116;2022-08-01T00:36:42;20.50;99.90
25280;DHT22;13225;47.804;12.116;2022-08-01T00:39:07;20.50;99.90
25280;DHT22;13225;47.804;12.116;2022-08-01T00:41:33;20.50;99.90
25280;DHT22;13225;47.804;12.116;2022-08-01T00:44:03;20.50;99.90
25280;DHT22;13225;47.804;12.116;2022-08-01T00:46:29;20.40;99.90
25280;DHT22;13225;47.804;12.116;2022-08-01T00:48:54;20.40;99.90
25280;DHT22;13225;47.804;12.116;2022-08-01T00:51:20;20.50;99.90
25280;DHT22;13225;47.804;12.116;2022-08-01T00:53:46;20.50;99.90
25280;DHT22;13225;47.804;12.116;2022-08-01T00:56:12;20.50;99.90
25280;DHT22;13225;47.804;12.116;2022-08-01T00:58:38;20.40;99.90
25280;DHT22;13225;47.804;12.116;2022-08-01T01:01:04;20.50;99.90
25280;DHT22;13225;47.804;12.116;2022-08-01T01:03:30;20.50;99.90
25280;DHT22;13225;47.804;12.116;2022-08-01T01:06:25;20.50;99.90
25280;DHT22;13225;47.804;12.116;2022-08-01T01:09:00;20.60;99.90
25280;DHT22;13225;47.804;12.116;2022-08-01T01:11:44;20.60;99.90
25280;DHT22;13225;47.804;12.116;2022-08-01T01:14:30;20.60;99.90
25280;DHT22;13225;47.804;12.116;2022-08-01T01:16:58;20.60;99.90
25280;DHT22;13225;47.804;12.116;2022-08-01T01:19:29;20.50;99.90
25280;DHT22;13225;47.804;12.116;2022-08-01T01:22:22;20.50;99.90
25280;DHT22;13225;47.804;12.116;2022-08-01T01:28:15;20.40;99.90
25280;DHT22;13225;47.804;12.116;2022-08-01T01:30:38;20.40;99.90
25280;DHT22;13225;47.804;12.116;2022-08-01T01:33:08;20.30;99.90
25280;DHT22;13225;47.804;12.116;2022-08-01T01:35:37;20.30;99.90
25280;DHT22;13225;47.804;12.116;2022-08-01T01:38:09;20.20;99.90
25280;DHT22;13225;47.804;12.116;2022-08-01T01:40:37;20.20;99.90
25280;DHT22;13225;47.804;12.116;2022-08-01T01:43:04;20.20;99.90
25280;DHT22;13225;47.804;12.116;2022-08-01T01:45:32;20.20;99.90
25280;DHT22;13225;47.804;12.116;2022-08-01T01:47:59;20.20;99.90
25280;DHT22;13225;47.804;12.116;2022-08-01T01:50:26;20.20;99.90
25280;DHT22;13225;47.804;12.116;2022-08-01T01:52:53;20.20;99.90
25280;DHT22;13225;47.804;12.116;2022-08-01T01:55:22;20.10;99.90
25280;DHT22;13225;47.804;12.116;2022-08-01T01:57:50;20.10;99.90
25280;DHT22;13225;47.804;12.116;2022-08-01T02:00:17;20.20;99.90
25280;DHT22;13225;47.804;12.116;2022-08-01T02:02:44;20.20;99.90
25280;DHT22;13225;47.804;12.116;2022-08-01T02:05:12;20.20;99.90
25280;DHT22;13225;47.804;12.116;2022-08-01T02:07:39;20.20;99.90
25280;DHT22;13225;47.804;12.116;2022-08-01T02:10:06;20.20;99.90
25280;DHT22;13225;47.804;12.116;2022-08-01T02:12:35;20.10;99.90
25280;DHT22;13225;47.804;12.116;2022-08-01T02:15:03;20.10;99.90
25280;DHT22;13225;47.804;12.116;2022-08-01T02:17:30;20.00;99.90
25280;DHT22;13225;47.804;12.116;2022-08-01T02:19:56;20.00;99.90
25280;DHT22;13225;47.804;12.116;2022-08-01T02:22:30;20.00;99.90
25280;DHT22;13225;47.804;12.116;2022-08-01T02:25:09;20.00;99.90
25280;DHT22;13225;47.804;12.116;2022-08-01T02:30:38;20.00;99.90
25280;DHT22;13225;47.804;12.116;2022-08-01T02:33:12;19.90;99.90
25280;DHT22;13225;47.804;12.116;2022-08-01T02:35:42;19.90;99.90
25280;DHT22;13225;47.804;12.116;2022-08-01T02:38:12;19.90;99.90
25280;DHT22;13225;47.804;12.116;2022-08-01T02:40:43;19.80;99.90
25280;DHT22;13225;47.804;12.116;2022-08-01T02:43:12;19.80;99.90
25280;DHT22;13225;47.804;12.116;2022-08-01T02:45:42;19.80;99.90
25280;DHT22;13225;47.804;12.116;2022-08-01T02:48:11;19.80;99.90
25280;DHT22;13225;47.804;12.116;2022-08-01T02:50:41;19.80;99.90
25280;DHT22;13225;47.804;12.116;2022-08-01T02:53:09;19.80;99.90
25280;DHT22;13225;47.804;12.116;2022-08-01T02:55:38;19.80;99.90
25280;DHT22;13225;47.804;12.116;2022-08-01T02:58:07;19.70;99.90
25280;DHT22;13225;47.804;12.116;2022-08-01T03:00:34;19.70;99.90
25280;DHT22;13225;47.804;12.116;2022-08-01T03:03:01;19.70;99.90
25280;DHT22;13225;47.804;12.116;2022-08-01T03:05:29;19.70;99.90
25280;DHT22;13225;47.804;12.116;2022-08-01T03:07:58;19.70;99.90
25280;DHT22;13225;47.804;12.116;2022-08-01T03:10:25;19.60;99.90
25280;DHT22;13225;47.804;12.116;2022-08-01T03:12:52;19.70;99.90
25280;DHT22;13225;47.804;12.116;2022-08-01T03:15:19;19.60;99.90
25280;DHT22;13225;47.804;12.116;2022-08-01T03:17:47;19.60;99.90
25280;DHT22;13225;47.804;12.116;2022-08-01T03:20:15;19.50;99.90
25280;DHT22;13225;47.804;12.116;2022-08-01T03:22:42;19.60;99.90
25280;DHT22;13225;47.804;12.116;2022-08-01T03:25:09;19.60;99.90
25280;DHT22;13225;47.804;12.116;2022-08-01T03:27:37;19.50;99.90
25280;DHT22;13225;47.804;12.116;2022-08-01T03:30:04;19.50;99.90
25280;DHT22;13225;47.804;12.116;2022-08-01T03:32:31;19.50;99.90
25280;DHT22;13225;47.804;12.116;2022-08-01T03:34:57;19.50;99.90
25280;DHT22;13225;47.804;12.116;2022-08-01T03:37:44;19.50;99.90
25280;DHT22;13225;47.804;12.116;2022-08-01T03:40:20;19.50;99.90
25280;DHT22;13225;47.804;12.116;2022-08-01T03:42:49;19.40;99.90
25280;DHT22;13225;47.804;12.116;2022-08-01T03:45:39;19.40;99.90
25280;DHT22;13225;47.804;12.116;2022-08-01T03:48:10;19.40;99.90
25280;DHT22;13225;47.804;12.116;2022-08-01T03:50:39;19.40;99.90
25280;DHT22;13225;47.804;12.116;2022-08-01T03:53:08;19.30;99.90
25280;DHT22;13225;47.804;12.116;2022-08-01T03:55:36;19.20;99.90
25280;DHT22;13225;47.804;12.116;2022-08-01T03:58:04;19.20;99.90
25280;DHT22;13225;47.804;12.116;2022-08-01T04:00:31;19.20;99.90
25280;DHT22;13225;47.804;12.116;2022-08-01T04:02:57;19.20;99.90
25280;DHT22;13225;47.804;12.116;2022-08-01T04:05:23;19.10;99.90
25280;DHT22;13225;47.804;12.116;2022-08-01T04:07:50;19.10;99.90
25280;DHT22;13225;47.804;12.116;2022-08-01T04:10:27;19.00;99.90
25280;DHT22;13225;47.804;12.116;2022-08-01T04:12:53;19.10;99.90
25280;DHT22;13225;47.804;12.116;2022-08-01T04:15:19;19.10;99.90
25280;DHT22;13225;47.804;12.116;2022-08-01T04:17:46;19.10;99.90
25280;DHT22;13225;47.804;12.116;2022-08-01T04:20:12;19.10;99.90
25280;DHT22;13225;47.804;12.116;2022-08-01T04:22:38;19.00;99.90
25280;DHT22;13225;47.804;12.116;2022-08-01T04:25:09;18.90;99.90
25280;DHT22;13225;47.804;12.116;2022-08-01T04:27:39;18.90;99.90
25280;DHT22;13225;47.804;12.116;2022-08-01T04:30:08;18.80;99.90
25280;DHT22;13225;47.804;12.116;2022-08-01T04:32:38;18.70;99.90
25280;DHT22;13225;47.804;12.116;2022-08-01T04:35:07;18.70;99.90
25280;DHT22;13225;47.804;12.116;2022-08-01T04:37:35;18.70;99.90
25280;DHT22;13225;47.804;12.116;2022-08-01T04:40:04;18.70;99.90
25280;DHT22;13225;47.804;12.116;2022-08-01T04:42:32;18.70;99.90
25280;DHT22;13225;47.804;12.116;2022-08-01T04:44:58;18.70;99.90
25280;DHT22;13225;47.804;12.116;2022-08-01T04:47:25;18.60;99.90
25280;DHT22;13225;47.804;12.116;2022-08-01T04:49:51;18.70;99.90
25280;DHT22;13225;47.804;12.116;2022-08-01T04:52:17;18.60;99.90
25280;DHT22;13225;47.804;12.116;2022-08-01T04:54:43;18.70;99.90
25280;DHT22;13225;47.804;12.116;2022-08-01T04:57:09;18.70;99.90
25280;DHT22;13225;47.804;12.116;2022-08-01T04:59:37;18.80;99.90
25280;DHT22;13225;47.804;12.116;2022-08-01T05:02:17;19.10;99.90
25280;DHT22;13225;47.804;12.116;2022-08-01T05:04:46;19.60;99.90
25280;DHT22;13225;47.804;12.116;2022-08-01T05:07:12;20.10;99.90
25280;DHT22;13225;47.804;12.116;2022-08-01T05:09:40;20.20;99.90
25280;DHT22;13225;47.804;12.116;2022-08-01T05:12:09;20.00;99.90
25280;DHT22;13225;47.804;12.116;2022-08-01T05:14:36;20.20;99.90
25280;DHT22;13225;47.804;12.116;2022-08-01T05:17:04;20.60;99.90
25280;DHT22;13225;47.804;12.116;2022-08-01T05:19:35;21.00;99.90
25280;DHT22;13225;47.804;12.116;2022-08-01T05:22:03;21.30;99.90
25280;DHT22;13225;47.804;12.116;2022-08-01T05:24:33;21.30;99.90
25280;DHT22;13225;47.804;12.116;2022-08-01T05:26:59;21.50;99.90
25280;DHT22;13225;47.804;12.116;2022-08-01T05:29:25;21.30;99.90
25280;DHT22;13225;47.804;12.116;2022-08-01T05:31:52;21.10;99.90
25280;DHT22;13225;47.804;12.116;2022-08-01T05:34:19;20.80;99.90
25280;DHT22;13225;47.804;12.116;2022-08-01T05:36:45;20.50;99.90
25280;DHT22;13225;47.804;12.116;2022-08-01T05:39:11;20.40;99.90
25280;DHT22;13225;47.804;12.116;2022-08-01T05:41:37;20.40;99.90
25280;DHT22;13225;47.804;12.116;2022-08-01T05:44:04;20.30;99.90
25280;DHT22;13225;47.804;12.116;2022-08-01T05:46:30;20.60;99.90
25280;DHT22;13225;47.804;12.116;2022-08-01T05:48:59;20.50;99.90
25280;DHT22;13225;47.804;12.116;2022-08-01T05:51:25;20.60;99.90
25280;DHT22;13225;47.804;12.116;2022-08-01T05:53:52;20.60;99.90
25280;DHT22;13225;47.804;12.116;2022-08-01T05:56:18;20.70;99.90
25280;DHT22;13225;47.804;12.116;2022-08-01T05:58:44;20.70;99.90
25280;DHT22;13225;47.804;12.116;2022-08-01T06:01:10;20.70;99.90
25280;DHT22;13225;47.804;12.116;2022-08-01T06:03:36;20.60;99.90
25280;DHT22;13225;47.804;12.116;2022-08-01T06:06:03;20.80;99.90
25280;DHT22;13225;47.804;12.116;2022-08-01T06:08:29;21.00;99.90
25280;DHT22;13225;47.804;12.116;2022-08-01T06:10:55;20.80;99.90
25280;DHT22;13225;47.804;12.116;2022-08-01T06:13:21;20.90;99.90
25280;DHT22;13225;47.804;12.116;2022-08-01T06:15:48;20.90;99.90
25280;DHT22;13225;47.804;12.116;2022-08-01T06:18:14;21.00;99.90
25280;DHT22;13225;47.804;12.116;2022-08-01T06:20:40;21.00;99.90
25280;DHT22;13225;47.804;12.116;2022-08-01T06:23:06;21.00;99.90
25280;DHT22;13225;47.804;12.116;2022-08-01T06:25:32;21.00;99.90
25280;DHT22;13225;47.804;12.116;2022-08-01T06:27:59;21.00;99.90
25280;DHT22;13225;47.804;12.116;2022-08-01T06:30:25;21.10;99.90
25280;DHT22;13225;47.804;12.116;2022-08-01T06:32:51;21.40;99.90
25280;DHT22;13225;47.804;12.116;2022-08-01T06:35:17;21.40;99.90
25280;DHT22;13225;47.804;12.116;2022-08-01T06:37:43;21.40;99.90
25280;DHT22;13225;47.804;12.116;2022-08-01T06:40:13;21.40;99.90
25280;DHT22;13225;47.804;12.116;2022-08-01T06:42:39;21.60;99.90
25280;DHT22;13225;47.804;12.116;2022-08-01T06:45:14;21.60;99.90
25280;DHT22;13225;47.804;12.116;2022-08-01T06:47:42;21.70;99.90
25280;DHT22;13225;47.804;12.116;2022-08-01T06:50:08;21.80;99.90
25280;DHT22;13225;47.804;12.116;2022-08-01T06:52:35;21.80;99.90
25280;DHT22;13225;47.804;12.116;2022-08-01T06:55:01;21.80;99.90
25280;DHT22;13225;47.804;12.116;2022-08-01T06:57:27;21.80;99.90
25280;DHT22;13225;47.804;12.116;2022-08-01T06:59:55;21.80;99.90
25280;DHT22;13225;47.804;12.116;2022-08-01T07:02:22;22.00;99.90
25280;DHT22;13225;47.804;12.116;2022-08-01T07:04:47;22.00;99.90
25280;DHT22;13225;47.804;12.116;2022-08-01T07:07:13;22.10;99.90
25280;DHT22;13225;47.804;12.116;2022-08-01T07:09:39;22.10;99.90
25280;DHT22;13225;47.804;12.116;2022-08-01T07:12:07;22.10;99.90
25280;DHT22;13225;47.804;12.116;2022-08-01T07:14:32;22.20;99.90
25280;DHT22;13225;47.804;12.116;2022-08-01T07:16:59;22.30;99.90
25280;DHT22;13225;47.804;12.116;2022-08-01T07:19:25;22.30;99.90
25280;DHT22;13225;47.804;12.116;2022-08-01T07:21:51;22.20;99.90
25280;DHT22;13225;47.804;12.116;2022-08-01T07:24:16;22.50;99.90
25280;DHT22;13225;47.804;12.116;2022-08-01T07:26:45;22.60;99.90
25280;DHT22;13225;47.804;12.116;2022-08-01T07:29:11;22.50;99.90
25280;DHT22;13225;47.804;12.116;2022-08-01T07:31:37;22.50;99.90
25280;DHT22;13225;47.804;12.116;2022-08-01T07:34:03;22.70;99.90
25280;DHT22;13225;47.804;12.116;2022-08-01T07:36:28;23.00;99.90
25280;DHT22;13225;47.804;12.116;2022-08-01T07:38:55;23.30;99.90
25280;DHT22;13225;47.804;12.116;2022-08-01T07:41:21;23.70;99.90
25280;DHT22;13225;47.804;12.116;2022-08-01T07:43:46;23.90;99.90
25280;DHT22;13225;47.804;12.116;2022-08-01T07:46:14;24.10;99.90
25280;DHT22;13225;47.804;12.116;2022-08-01T07:48:41;24.10;99.90
25280;DHT22;13225;47.804;12.116;2022-08-01T07:51:07;24.10;99.90
25280;DHT22;13225;47.804;12.116;2022-08-01T07:53:36;24.30;99.90
25280;DHT22;13225;47.804;12.116;2022-08-01T07:56:03;24.20;99.90
25280;DHT22;13225;47.804;12.116;2022-08-01T07:58:30;24.30;99.90
25280;DHT22;13225;47.804;12.116;2022-08-01T08:00:56;24.30;99.90
25280;DHT22;13225;47.804;12.116;2022-08-01T08:03:22;24.50;99.90
25280;DHT22;13225;47.804;12.116;2022-08-01T08:05:48;24.70;99.90
25280;DHT22;13225;47.804;12.116;2022-08-01T08:08:14;24.60;99.90
25280;DHT22;13225;47.804;12.116;2022-08-01T08:10:41;24.50;99.90
25280;DHT22;13225;47.804;12.116;2022-08-01T08:13:07;24.50;99.90
25280;DHT22;13225;47.804;12.116;2022-08-01T08:15:33;24.70;99.90
25280;DHT22;13225;47.804;12.116;2022-08-01T08:17:58;24.70;99.90
25280;DHT22;13225;47.804;12.116;2022-08-01T08:20:24;24.70;99.90
25280;DHT22;13225;47.804;12.116;2022-08-01T08:22:53;24.80;99.90
25280;DHT22;13225;47.804;12.116;2022-08-01T08:25:19;24.90;99.90
25280;DHT22;13225;47.804;12.116;2022-08-01T08:27:45;24.90;99.90
25280;DHT22;13225;47.804;12.116;2022-08-01T08:30:12;25.00;99.90
25280;DHT22;13225;47.804;12.116;2022-08-01T08:32:39;24.90;99.90
25280;DHT22;13225;47.804;12.116;2022-08-01T08:35:06;25.10;99.90
25280;DHT22;13225;47.804;12.116;2022-08-01T08:37:36;25.00;99.90
25280;DHT22;13225;47.804;12.116;2022-08-01T08:40:03;25.10;99.90
25280;DHT22;13225;47.804;12.116;2022-08-01T08:42:30;25.20;99.90
25280;DHT22;13225;47.804;12.116;2022-08-01T08:44:56;25.40;99.90
25280;DHT22;13225;47.804;12.116;2022-08-01T08:47:22;25.30;99.90
25280;DHT22;13225;47.804;12.116;2022-08-01T08:49:54;25.10;99.90
25280;DHT22;13225;47.804;12.116;2022-08-01T08:52:21;25.10;99.90
25280;DHT22;13225;47.804;12.116;2022-08-01T08:54:49;25.30;99.90
25280;DHT22;13225;47.804;12.116;2022-08-01T08:57:15;25.40;99.90
25280;DHT22;13225;47.804;12.116;2022-08-01T08:59:44;25.40;99.90
25280;DHT22;13225;47.804;12.116;2022-08-01T09:02:10;25.50;99.90
25280;DHT22;13225;47.804;12.116;2022-08-01T09:04:38;25.70;99.90
25280;DHT22;13225;47.804;12.116;2022-08-01T09:07:06;25.30;99.90
25280;DHT22;13225;47.804;12.116;2022-08-01T09:09:32;25.50;99.90
25280;DHT22;13225;47.804;12.116;2022-08-01T09:11:58;25.70;99.90
25280;DHT22;13225;47.804;12.116;2022-08-01T09:14:25;25.90;99.90
25280;DHT22;13225;47.804;12.116;2022-08-01T09:17:05;25.90;99.90
25280;DHT22;13225;47.804;12.116;2022-08-01T09:19:37;26.00;99.90
25280;DHT22;13225;47.804;12.116;2022-08-01T09:22:09;25.90;99.90
25280;DHT22;13225;47.804;12.116;2022-08-01T09:24:35;25.70;99.90
25280;DHT22;13225;47.804;12.116;2022-08-01T09:27:14;25.70;99.90
25280;DHT22;13225;47.804;12.116;2022-08-01T09:29:41;25.70;99.90
25280;DHT22;13225;47.804;12.116;2022-08-01T09:32:07;25.70;99.90
25280;DHT22;13225;47.804;12.116;2022-08-01T09:34:33;25.90;99.90
25280;DHT22;13225;47.804;12.116;2022-08-01T09:37:01;26.00;99.90
25280;DHT22;13225;47.804;12.116;2022-08-01T09:39:34;26.00;99.90
25280;DHT22;13225;47.804;12.116;2022-08-01T09:42:22;26.10;99.90
25280;DHT22;13225;47.804;12.116;2022-08-01T09:44:49;26.10;99.90
25280;DHT22;13225;47.804;12.116;2022-08-01T09:47:16;26.00;99.90
25280;DHT22;13225;47.804;12.116;2022-08-01T09:49:43;26.10;99.90
25280;DHT22;13225;47.804;12.116;2022-08-01T09:52:18;26.30;99.90
25280;DHT22;13225;47.804;12.116;2022-08-01T09:54:53;26.20;99.90
25280;DHT22;13225;47.804;12.116;2022-08-01T09:57:20;26.30;99.90
25280;DHT22;13225;47.804;12.116;2022-08-01T09:59:52;26.20;99.90
25280;DHT22;13225;47.804;12.116;2022-08-01T10:02:32;26.30;99.90
25280;DHT22;13225;47.804;12.116;2022-08-01T10:04:59;26.40;99.90
25280;DHT22;13225;47.804;12.116;2022-08-01T10:07:25;26.50;99.90
25280;DHT22;13225;47.804;12.116;2022-08-01T10:09:51;26.40;99.90
25280;DHT22;13225;47.804;12.116;2022-08-01T10:12:21;26.50;99.90
25280;DHT22;13225;47.804;12.116;2022-08-01T10:14:48;26.60;99.90
25280;DHT22;13225;47.804;12.116;2022-08-01T10:17:16;26.80;99.90
25280;DHT22;13225;47.804;12.116;2022-08-01T10:19:43;26.80;99.90
25280;DHT22;13225;47.804;12.116;2022-08-01T10:22:11;26.60;99.90
25280;DHT22;13225;47.804;12.116;2022-08-01T10:24:39;26.70;99.90
25280;DHT22;13225;47.804;12.116;2022-08-01T10:27:08;26.90;99.90
25280;DHT22;13225;47.804;12.116;2022-08-01T10:29:40;27.00;99.90
25280;DHT22;13225;47.804;12.116;2022-08-01T10:32:06;26.90;99.90
25280;DHT22;13225;47.804;12.116;2022-08-01T10:34:35;27.10;99.90
25280;DHT22;13225;47.804;12.116;2022-08-01T10:37:03;27.10;99.90
25280;DHT22;13225;47.804;12.116;2022-08-01T10:39:30;27.30;99.90
25280;DHT22;13225;47.804;12.116;2022-08-01T10:41:56;27.60;99.90
25280;DHT22;13225;47.804;12.116;2022-08-01T10:44:24;27.60;99.90
25280;DHT22;13225;47.804;12.116;2022-08-01T10:46:55;27.30;99.90
25280;DHT22;13225;47.804;12.116;2022-08-01T10:49:26;27.30;99.70
25280;DHT22;13225;47.804;12.116;2022-08-01T10:51:53;27.40;99.90
25280;DHT22;13225;47.804;12.116;2022-08-01T10:54:19;27.50;99.90
25280;DHT22;13225;47.804;12.116;2022-08-01T10:56:51;27.60;99.90
25280;DHT22;13225;47.804;12.116;2022-08-01T10:59:28;27.10;99.80
25280;DHT22;13225;47.804;12.116;2022-08-01T11:02:02;27.40;99.90
25280;DHT22;13225;47.804;12.116;2022-08-01T11:04:51;27.70;99.40
25280;DHT22;13225;47.804;12.116;2022-08-01T11:07:23;27.80;99.90
25280;DHT22;13225;47.804;12.116;2022-08-01T11:10:15;27.80;98.70
25280;DHT22;13225;47.804;12.116;2022-08-01T11:12:42;27.80;99.60
25280;DHT22;13225;47.804;12.116;2022-08-01T11:17:36;28.10;99.90
25280;DHT22;13225;47.804;12.116;2022-08-01T11:20:06;28.20;99.00
25280;DHT22;13225;47.804;12.116;2022-08-01T11:30:48;28.20;98.50
25280;DHT22;13225;47.804;12.116;2022-08-01T11:33:17;28.30;98.10
25280;DHT22;13225;47.804;12.116;2022-08-01T11:38:47;28.10;97.90
25280;DHT22;13225;47.804;12.116;2022-08-01T11:41:33;28.50;98.10
25280;DHT22;13225;47.804;12.116;2022-08-01T11:44:07;28.70;97.60
25280;DHT22;13225;47.804;12.116;2022-08-01T11:46:59;28.80;97.00
25280;DHT22;13225;47.804;12.116;2022-08-01T11:49:31;28.50;97.70
25280;DHT22;13225;47.804;12.116;2022-08-01T11:52:09;28.60;97.10
25280;DHT22;13225;47.804;12.116;2022-08-01T11:54:39;28.60;95.60
25280;DHT22;13225;47.804;12.116;2022-08-01T11:57:07;28.80;96.90
25280;DHT22;13225;47.804;12.116;2022-08-01T11:59:42;28.70;96.70
25280;DHT22;13225;47.804;12.116;2022-08-01T12:02:25;28.90;96.10
25280;DHT22;13225;47.804;12.116;2022-08-01T12:05:05;29.00;94.70
25280;DHT22;13225;47.804;12.116;2022-08-01T12:07:32;29.70;96.10
25280;DHT22;13225;47.804;12.116;2022-08-01T12:10:03;29.80;94.20
25280;DHT22;13225;47.804;12.116;2022-08-01T12:12:30;29.90;92.70
25280;DHT22;13225;47.804;12.116;2022-08-01T12:15:02;29.80;94.20
25280;DHT22;13225;47.804;12.116;2022-08-01T12:17:33;30.20;94.60
25280;DHT22;13225;47.804;12.116;2022-08-01T12:20:00;30.30;93.40
25280;DHT22;13225;47.804;12.116;2022-08-01T12:22:26;29.80;91.90
25280;DHT22;13225;47.804;12.116;2022-08-01T12:24:52;30.80;91.80
25280;DHT22;13225;47.804;12.116;2022-08-01T12:27:26;31.10;90.20
25280;DHT22;13225;47.804;12.116;2022-08-01T12:29:52;30.90;88.20
25280;DHT22;13225;47.804;12.116;2022-08-01T12:32:29;31.20;89.30
25280;DHT22;13225;47.804;12.116;2022-08-01T12:35:07;31.50;89.70
25280;DHT22;13225;47.804;12.116;2022-08-01T12:37:41;31.40;85.60
25280;DHT22;13225;47.804;12.116;2022-08-01T12:40:20;30.70;87.10
25280;DHT22;13225;47.804;12.116;2022-08-01T12:42:51;30.90;88.90
25280;DHT22;13225;47.804;12.116;2022-08-01T12:45:25;31.30;86.20
25280;DHT22;13225;47.804;12.116;2022-08-01T12:47:53;31.60;82.80
25280;DHT22;13225;47.804;12.116;2022-08-01T12:50:21;32.10;81.90
25280;DHT22;13225;47.804;12.116;2022-08-01T12:52:48;32.20;80.00
25280;DHT22;13225;47.804;12.116;2022-08-01T12:55:24;32.40;82.20
25280;DHT22;13225;47.804;12.116;2022-08-01T13:00:30;31.40;82.40
25280;DHT22;13225;47.804;12.116;2022-08-01T13:03:05;32.30;80.50
25280;DHT22;13225;47.804;12.116;2022-08-01T13:08:14;32.70;78.60
25280;DHT22;13225;47.804;12.116;2022-08-01T13:10:41;33.80;71.90
25280;DHT22;13225;47.804;12.116;2022-08-01T13:13:07;33.60;74.90
25280;DHT22;13225;47.804;12.116;2022-08-01T13:15:36;34.10;70.90
25280;DHT22;13225;47.804;12.116;2022-08-01T13:18:24;33.10;72.40
25280;DHT22;13225;47.804;12.116;2022-08-01T13:21:26;32.60;73.80
25280;DHT22;13225;47.804;12.116;2022-08-01T13:26:56;31.90;71.00
25280;DHT22;13225;47.804;12.116;2022-08-01T13:29:32;32.10;76.50
25280;DHT22;13225;47.804;12.116;2022-08-01T13:31:59;31.70;76.90
25280;DHT22;13225;47.804;12.116;2022-08-01T13:34:33;32.00;71.70
25280;DHT22;13225;47.804;12.116;2022-08-01T13:37:00;32.00;75.40
25280;DHT22;13225;47.804;12.116;2022-08-01T13:39:28;32.10;74.40
25280;DHT22;13225;47.804;12.116;2022-08-01T13:42:08;32.20;73.70
25280;DHT22;13225;47.804;12.116;2022-08-01T13:44:34;32.80;72.50
25280;DHT22;13225;47.804;12.116;2022-08-01T13:47:00;33.50;73.60
25280;DHT22;13225;47.804;12.116;2022-08-01T13:49:25;35.00;65.90
25280;DHT22;13225;47.804;12.116;2022-08-01T13:51:51;34.80;66.30
25280;DHT22;13225;47.804;12.116;2022-08-01T13:54:18;34.60;62.80
25280;DHT22;13225;47.804;12.116;2022-08-01T13:56:43;33.30;68.50
25280;DHT22;13225;47.804;12.116;2022-08-01T13:59:09;33.00;71.70
25280;DHT22;13225;47.804;12.116;2022-08-01T14:01:35;32.50;66.70
25280;DHT22;13225;47.804;12.116;2022-08-01T14:04:01;32.50;70.90
25280;DHT22;13225;47.804;12.116;2022-08-01T14:06:28;32.10;67.80
25280;DHT22;13225;47.804;12.116;2022-08-01T14:08:54;32.50;68.50
25280;DHT22;13225;47.804;12.116;2022-08-01T14:11:20;32.90;67.70
25280;DHT22;13225;47.804;12.116;2022-08-01T14:13:45;32.80;69.20
25280;DHT22;13225;47.804;12.116;2022-08-01T14:16:11;33.90;66.40
25280;DHT22;13225;47.804;12.116;2022-08-01T14:18:37;32.90;66.30
25280;DHT22;13225;47.804;12.116;2022-08-01T14:21:03;33.30;66.80
25280;DHT22;13225;47.804;12.116;2022-08-01T14:23:29;33.30;63.50
25280;DHT22;13225;47.804;12.116;2022-08-01T14:25:55;33.60;65.10
25280;DHT22;13225;47.804;12.116;2022-08-01T14:28:20;34.40;64.20
25280;DHT22;13225;47.804;12.116;2022-08-01T14:30:47;34.60;61.00
25280;DHT22;13225;47.804;12.116;2022-08-01T14:33:13;34.20;64.90
25280;DHT22;13225;47.804;12.116;2022-08-01T14:35:39;33.90;67.10
25280;DHT22;13225;47.804;12.116;2022-08-01T14:38:05;34.80;65.40
25280;DHT22;13225;47.804;12.116;2022-08-01T14:40:31;34.70;63.20
25280;DHT22;13225;47.804;12.116;2022-08-01T14:42:57;34.60;62.00
25280;DHT22;13225;47.804;12.116;2022-08-01T14:45:23;34.80;62.20
25280;DHT22;13225;47.804;12.116;2022-08-01T14:47:49;35.00;62.30
25280;DHT22;13225;47.804;12.116;2022-08-01T14:50:15;35.70;62.00
25280;DHT22;13225;47.804;12.116;2022-08-01T14:52:42;35.50;59.50
25280;DHT22;13225;47.804;12.116;2022-08-01T14:55:09;34.70;58.80
25280;DHT22;13225;47.804;12.116;2022-08-01T14:57:36;33.50;59.90
25280;DHT22;13225;47.804;12.116;2022-08-01T15:00:05;33.70;59.00
25280;DHT22;13225;47.804;12.116;2022-08-01T15:02:31;34.20;58.70
25280;DHT22;13225;47.804;12.116;2022-08-01T15:04:57;35.70;60.60
25280;DHT22;13225;47.804;12.116;2022-08-01T15:07:22;34.80;56.80
25280;DHT22;13225;47.804;12.116;2022-08-01T15:09:48;35.00;59.70
25280;DHT22;13225;47.804;12.116;2022-08-01T15:12:14;34.70;56.60
25280;DHT22;13225;47.804;12.116;2022-08-01T15:14:40;34.50;60.40
25280;DHT22;13225;47.804;12.116;2022-08-01T15:17:16;35.20;57.90
25280;DHT22;13225;47.804;12.116;2022-08-01T15:19:42;34.80;57.80
25280;DHT22;13225;47.804;12.116;2022-08-01T15:22:08;33.80;61.10
25280;DHT22;13225;47.804;12.116;2022-08-01T15:24:34;32.60;66.90
25280;DHT22;13225;47.804;12.116;2022-08-01T15:26:59;31.90;71.00
25280;DHT22;13225;47.804;12.116;2022-08-01T15:29:25;32.90;70.10
25280;DHT22;13225;47.804;12.116;2022-08-01T15:31:52;33.30;68.60
25280;DHT22;13225;47.804;12.116;2022-08-01T15:34:17;33.70;68.00
25280;DHT22;13225;47.804;12.116;2022-08-01T15:36:43;34.10;67.70
25280;DHT22;13225;47.804;12.116;2022-08-01T15:39:10;34.40;66.20
25280;DHT22;13225;47.804;12.116;2022-08-01T15:41:36;34.30;66.70
25280;DHT22;13225;47.804;12.116;2022-08-01T15:44:02;34.70;64.20
25280;DHT22;13225;47.804;12.116;2022-08-01T15:46:28;34.50;63.30
25280;DHT22;13225;47.804;12.116;2022-08-01T15:48:54;34.40;62.80
25280;DHT22;13225;47.804;12.116;2022-08-01T15:51:20;34.10;64.20